sensor_id;sensor_type;location;lat;lon;timestamp;P1;durP1;ratioP1;P2;durP2;ratioP2
15363;SDS011;7781;49.690;6.472;2023-03-01T00:01:48;3.60;;;2.70;;
15363;SDS011;7781;49.690;6.472;2023-03-01T00:04:16;5.07;;;3.70;;
15363;SDS011;7781;49.690;6.472;2023-03-01T00:06:45;5.63;;;3.63;;
15363;SDS011;7781;49.690;6.472;2023-03-01T00:09:14;4.10;;;3.23;;
15363;SDS011;7781;49.690;6.472;2023-03-01T00:11:43;6.03;;;3.20;;
15363;SDS011;7781;49.690;6.472;2023-03-01T00:14:14;5.13;;;3.10;;
15363;SDS011;7781;49.690;6.472;2023-03-01T00:16:44;3.63;;;2.93;;
15363;SDS011;7781;49.690;6.472;2023-03-01T00:19:15;3.47;;;2.93;;
15363;SDS011;7781;49.690;6.472;2023-03-01T00:21:45;4.77;;;2.90;;
15363;SDS011;7781;49.690;6.472;2023-03-01T00:24:14;4.20;;;3.20;;
15363;SDS011;7781;49.690;6.472;2023-03-01T00:26:43;6.93;;;3.40;;
15363;SDS011;7781;49.690;6.472;2023-03-01T00:29:13;4.97;;;3.60;;
15363;SDS011;7781;49.690;6.472;2023-03-01T00:31:43;6.90;;;3.80;;
15363;SDS011;7781;49.690;6.472;2023-03-01T00:34:11;3.97;;;2.77;;
15363;SDS011;7781;49.690;6.472;2023-03-01T00:36:41;5.90;;;3.37;;
15363;SDS011;7781;49.690;6.472;2023-03-01T00:39:11;5.03;;;3.50;;
15363;SDS011;7781;49.690;6.472;2023-03-01T00:41:42;5.57;;;3.63;;
15363;SDS011;7781;49.690;6.472;2023-03-01T00:44:13;5.90;;;3.40;;
15363;SDS011;7781;49.690;6.472;2023-03-01T00:46:42;4.43;;;2.90;;
15363;SDS011;7781;49.690;6.472;2023-03-01T00:49:11;5.00;;;3.50;;
15363;SDS011;7781;49.690;6.472;2023-03-01T00:51:41;5.80;;;3.63;;
15363;SDS011;7781;49.690;6.472;2023-03-01T00:54:09;4.53;;;3.30;;
15363;SDS011;7781;49.690;6.472;2023-03-01T00:56:38;6.33;;;3.30;;
15363;SDS011;7781;49.690;6.472;2023-03-01T00:59:06;4.97;;;3.50;;
15363;SDS011;7781;49.690;6.472;2023-03-01T01:01:38;6.07;;;3.43;;
15363;SDS011;7781;49.690;6.472;2023-03-01T01:04:07;5.57;;;3.40;;
15363;SDS011;7781;49.690;6.472;2023-03-01T01:06:38;5.27;;;3.60;;
15363;SDS011;7781;49.690;6.472;2023-03-01T01:09:14;8.00;;;3.83;;
15363;SDS011;7781;49.690;6.472;2023-03-01T01:11:45;7.33;;;4.10;;
15363;SDS011;7781;49.690;6.472;2023-03-01T01:14:15;4.67;;;3.43;;
15363;SDS011;7781;49.690;6.472;2023-03-01T01:16:47;4.97;;;3.70;;
15363;SDS011;7781;49.690;6.472;2023-03-01T01:19:16;6.73;;;3.87;;
15363;SDS011;7781;49.690;6.472;2023-03-01T01:21:45;4.40;;;3.60;;
15363;SDS011;7781;49.690;6.472;2023-03-01T01:24:16;4.23;;;3.23;;
15363;SDS011;7781;49.690;6.472;2023-03-01T01:26:45;6.00;;;4.40;;
15363;SDS011;7781;49.690;6.472;2023-03-01T01:29:14;6.10;;;3.70;;
15363;SDS011;7781;49.690;6.472;2023-03-01T01:31:42;5.47;;;3.47;;
15363;SDS011;7781;49.690;6.472;2023-03-01T01:34:13;4.80;;;3.80;;
15363;SDS011;7781;49.690;6.472;2023-03-01T01:36:43;5.73;;;3.20;;
15363;SDS011;7781;49.690;6.472;2023-03-01T01:39:13;6.30;;;3.40;;
15363;SDS011;7781;49.690;6.472;2023-03-01T01:41:43;4.80;;;3.80;;
15363;SDS011;7781;49.690;6.472;2023-03-01T01:44:13;4.70;;;3.70;;
15363;SDS011;7781;49.690;6.472;2023-03-01T01:46:50;4.53;;;3.20;;
15363;SDS011;7781;49.690;6.472;2023-03-01T01:49:26;4.13;;;2.73;;
15363;SDS011;7781;49.690;6.472;2023-03-01T01:52:03;5.00;;;3.47;;
15363;SDS011;7781;49.690;6.472;2023-03-01T01:54:38;6.13;;;3.70;;
15363;SDS011;7781;49.690;6.472;2023-03-01T01:57:12;6.33;;;3.53;;
15363;SDS011;7781;49.690;6.472;2023-03-01T01:59:45;5.33;;;3.57;;
15363;SDS011;7781;49.690;6.472;2023-03-01T02:02:18;5.93;;;3.67;;
15363;SDS011;7781;49.690;6.472;2023-03-01T02:04:52;6.93;;;4.27;;
15363;SDS011;7781;49.690;6.472;2023-03-01T02:07:25;5.83;;;4.07;;
15363;SDS011;7781;49.690;6.472;2023-03-01T02:09:55;5.00;;;3.90;;
15363;SDS011;7781;49.690;6.472;2023-03-01T02:12:26;9.40;;;4.37;;
15363;SDS011;7781;49.690;6.472;2023-03-01T02:14:55;8.77;;;4.30;;
15363;SDS011;7781;49.690;6.472;2023-03-01T02:17:28;5.53;;;4.10;;
15363;SDS011;7781;49.690;6.472;2023-03-01T02:20:00;7.73;;;4.60;;
15363;SDS011;7781;49.690;6.472;2023-03-01T02:22:36;3.33;;;2.80;;
15363;SDS011;7781;49.690;6.472;2023-03-01T02:25:09;3.97;;;2.83;;
15363;SDS011;7781;49.690;6.472;2023-03-01T02:27:49;7.00;;;3.37;;
15363;SDS011;7781;49.690;6.472;2023-03-01T02:30:25;5.10;;;3.70;;
15363;SDS011;7781;49.690;6.472;2023-03-01T02:32:55;3.40;;;3.00;;
15363;SDS011;7781;49.690;6.472;2023-03-01T02:35:30;5.37;;;3.67;;
15363;SDS011;7781;49.690;6.472;2023-03-01T02:38:01;4.90;;;3.20;;
15363;SDS011;7781;49.690;6.472;2023-03-01T02:40:31;5.03;;;2.90;;
15363;SDS011;7781;49.690;6.472;2023-03-01T02:43:03;6.70;;;3.37;;
15363;SDS011;7781;49.690;6.472;2023-03-01T02:45:37;5.50;;;3.63;;
15363;SDS011;7781;49.690;6.472;2023-03-01T02:48:10;5.83;;;4.33;;
15363;SDS011;7781;49.690;6.472;2023-03-01T02:50:50;7.87;;;4.07;;
15363;SDS011;7781;49.690;6.472;2023-03-01T02:53:31;5.53;;;3.83;;
15363;SDS011;7781;49.690;6.472;2023-03-01T02:56:07;6.67;;;4.40;;
15363;SDS011;7781;49.690;6.472;2023-03-01T02:58:40;6.87;;;4.30;;
15363;SDS011;7781;49.690;6.472;2023-03-01T03:01:16;7.63;;;3.97;;
15363;SDS011;7781;49.690;6.472;2023-03-01T03:03:45;7.53;;;4.77;;
15363;SDS011;7781;49.690;6.472;2023-03-01T03:06:13;11.33;;;5.20;;
15363;SDS011;7781;49.690;6.472;2023-03-01T03:08:43;6.63;;;4.60;;
15363;SDS011;7781;49.690;6.472;2023-03-01T03:11:12;8.77;;;4.43;;
15363;SDS011;7781;49.690;6.472;2023-03-01T03:13:40;8.57;;;4.97;;
15363;SDS011;7781;49.690;6.472;2023-03-01T03:16:20;9.27;;;4.77;;
15363;SDS011;7781;49.690;6.472;2023-03-01T03:18:49;8.50;;;5.00;;
15363;SDS011;7781;49.690;6.472;2023-03-01T03:21:18;11.93;;;5.33;;
15363;SDS011;7781;49.690;6.472;2023-03-01T03:23:47;6.73;;;4.97;;
15363;SDS011;7781;49.690;6.472;2023-03-01T03:26:16;8.30;;;4.87;;
15363;SDS011;7781;49.690;6.472;2023-03-01T03:28:44;7.13;;;4.53;;
15363;SDS011;7781;49.690;6.472;2023-03-01T03:31:13;10.83;;;5.23;;
15363;SDS011;7781;49.690;6.472;2023-03-01T03:33:44;5.80;;;4.60;;
15363;SDS011;7781;49.690;6.472;2023-03-01T03:36:14;9.10;;;5.00;;
15363;SDS011;7781;49.690;6.472;2023-03-01T03:38:44;7.17;;;4.83;;
15363;SDS011;7781;49.690;6.472;2023-03-01T03:41:13;8.63;;;4.70;;
15363;SDS011;7781;49.690;6.472;2023-03-01T03:43:43;10.33;;;5.37;;
15363;SDS011;7781;49.690;6.472;2023-03-01T03:46:12;6.77;;;4.83;;
15363;SDS011;7781;49.690;6.472;2023-03-01T03:48:42;7.63;;;4.43;;
15363;SDS011;7781;49.690;6.472;2023-03-01T03:51:13;5.93;;;4.33;;
15363;SDS011;7781;49.690;6.472;2023-03-01T03:53:44;7.37;;;4.63;;
15363;SDS011;7781;49.690;6.472;2023-03-01T03:56:13;4.93;;;4.47;;
15363;SDS011;7781;49.690;6.472;2023-03-01T03:58:42;9.20;;;4.83;;
15363;SDS011;7781;49.690;6.472;2023-03-01T04:01:11;9.90;;;5.40;;
15363;SDS011;7781;49.690;6.472;2023-03-01T04:03:39;9.50;;;4.90;;
15363;SDS011;7781;49.690;6.472;2023-03-01T04:06:15;6.17;;;4.90;;
15363;SDS011;7781;49.690;6.472;2023-03-01T04:08:44;14.57;;;5.00;;
15363;SDS011;7781;49.690;6.472;2023-03-01T04:11:17;6.70;;;4.73;;
15363;SDS011;7781;49.690;6.472;2023-03-01T04:13:56;9.23;;;5.53;;
15363;SDS011;7781;49.690;6.472;2023-03-01T04:16:26;8.60;;;4.83;;
15363;SDS011;7781;49.690;6.472;2023-03-01T04:18:56;11.10;;;5.63;;
15363;SDS011;7781;49.690;6.472;2023-03-01T04:21:28;7.10;;;4.37;;
15363;SDS011;7781;49.690;6.472;2023-03-01T04:23:57;14.67;;;5.67;;
15363;SDS011;7781;49.690;6.472;2023-03-01T04:26:26;8.40;;;4.80;;
15363;SDS011;7781;49.690;6.472;2023-03-01T04:28:56;8.93;;;5.37;;
15363;SDS011;7781;49.690;6.472;2023-03-01T04:31:25;8.77;;;5.23;;
15363;SDS011;7781;49.690;6.472;2023-03-01T04:33:55;10.83;;;6.20;;
15363;SDS011;7781;49.690;6.472;2023-03-01T04:36:24;9.40;;;6.07;;
15363;SDS011;7781;49.690;6.472;2023-03-01T04:38:56;9.27;;;6.07;;
15363;SDS011;7781;49.690;6.472;2023-03-01T04:41:25;11.10;;;5.70;;
15363;SDS011;7781;49.690;6.472;2023-03-01T04:43:54;10.37;;;5.50;;
15363;SDS011;7781;49.690;6.472;2023-03-01T04:46:23;7.90;;;5.03;;
15363;SDS011;7781;49.690;6.472;2023-03-01T04:48:52;7.43;;;5.57;;
15363;SDS011;7781;49.690;6.472;2023-03-01T04:51:20;11.07;;;5.80;;
15363;SDS011;7781;49.690;6.472;2023-03-01T04:53:49;8.67;;;5.50;;
15363;SDS011;7781;49.690;6.472;2023-03-01T04:56:20;11.03;;;5.90;;
15363;SDS011;7781;49.690;6.472;2023-03-01T04:58:52;8.30;;;4.97;;
15363;SDS011;7781;49.690;6.472;2023-03-01T05:01:21;14.73;;;5.10;;
15363;SDS011;7781;49.690;6.472;2023-03-01T05:03:50;7.77;;;5.00;;
15363;SDS011;7781;49.690;6.472;2023-03-01T05:06:19;9.20;;;5.13;;
15363;SDS011;7781;49.690;6.472;2023-03-01T05:08:48;8.53;;;5.13;;
15363;SDS011;7781;49.690;6.472;2023-03-01T05:11:16;6.40;;;4.70;;
15363;SDS011;7781;49.690;6.472;2023-03-01T05:13:47;7.20;;;4.70;;
15363;SDS011;7781;49.690;6.472;2023-03-01T05:16:17;8.30;;;5.83;;
15363;SDS011;7781;49.690;6.472;2023-03-01T05:18:46;9.73;;;5.80;;
15363;SDS011;7781;49.690;6.472;2023-03-01T05:21:19;8.97;;;4.80;;
15363;SDS011;7781;49.690;6.472;2023-03-01T05:23:50;11.50;;;6.20;;
15363;SDS011;7781;49.690;6.472;2023-03-01T05:26:20;12.10;;;6.50;;
15363;SDS011;7781;49.690;6.472;2023-03-01T05:28:56;12.43;;;5.93;;
15363;SDS011;7781;49.690;6.472;2023-03-01T05:31:27;9.77;;;6.23;;
15363;SDS011;7781;49.690;6.472;2023-03-01T05:33:57;10.90;;;5.90;;
15363;SDS011;7781;49.690;6.472;2023-03-01T05:36:26;9.87;;;5.80;;
15363;SDS011;7781;49.690;6.472;2023-03-01T05:38:57;9.97;;;6.30;;
15363;SDS011;7781;49.690;6.472;2023-03-01T05:41:27;8.30;;;5.60;;
15363;SDS011;7781;49.690;6.472;2023-03-01T05:43:57;8.50;;;5.53;;
15363;SDS011;7781;49.690;6.472;2023-03-01T05:46:25;10.23;;;5.57;;
15363;SDS011;7781;49.690;6.472;2023-03-01T05:48:56;11.90;;;5.30;;
15363;SDS011;7781;49.690;6.472;2023-03-01T05:51:24;8.17;;;4.97;;
15363;SDS011;7781;49.690;6.472;2023-03-01T05:53:53;11.20;;;6.57;;
15363;SDS011;7781;49.690;6.472;2023-03-01T05:56:21;9.83;;;6.10;;
15363;SDS011;7781;49.690;6.472;2023-03-01T05:58:51;11.20;;;6.60;;
15363;SDS011;7781;49.690;6.472;2023-03-01T06:01:20;8.37;;;5.87;;
15363;SDS011;7781;49.690;6.472;2023-03-01T06:03:49;11.03;;;6.90;;
15363;SDS011;7781;49.690;6.472;2023-03-01T06:06:18;11.27;;;6.13;;
15363;SDS011;7781;49.690;6.472;2023-03-01T06:08:46;9.17;;;5.70;;
15363;SDS011;7781;49.690;6.472;2023-03-01T06:11:16;18.30;;;6.50;;
15363;SDS011;7781;49.690;6.472;2023-03-01T06:13:45;11.30;;;6.03;;
15363;SDS011;7781;49.690;6.472;2023-03-01T06:16:15;17.83;;;7.47;;
15363;SDS011;7781;49.690;6.472;2023-03-01T06:18:45;10.33;;;6.70;;
15363;SDS011;7781;49.690;6.472;2023-03-01T06:21:14;11.37;;;6.30;;
15363;SDS011;7781;49.690;6.472;2023-03-01T06:23:42;10.20;;;6.60;;
15363;SDS011;7781;49.690;6.472;2023-03-01T06:26:11;10.80;;;7.10;;
15363;SDS011;7781;49.690;6.472;2023-03-01T06:28:39;13.60;;;6.77;;
15363;SDS011;7781;49.690;6.472;2023-03-01T06:31:11;12.00;;;6.97;;
15363;SDS011;7781;49.690;6.472;2023-03-01T06:33:42;11.07;;;6.40;;
15363;SDS011;7781;49.690;6.472;2023-03-01T06:36:13;12.60;;;6.57;;
15363;SDS011;7781;49.690;6.472;2023-03-01T06:38:45;14.63;;;6.67;;
15363;SDS011;7781;49.690;6.472;2023-03-01T06:41:13;18.93;;;8.20;;
15363;SDS011;7781;49.690;6.472;2023-03-01T06:43:42;12.03;;;6.07;;
15363;SDS011;7781;49.690;6.472;2023-03-01T06:46:10;11.10;;;7.00;;
15363;SDS011;7781;49.690;6.472;2023-03-01T06:48:38;12.00;;;6.87;;
15363;SDS011;7781;49.690;6.472;2023-03-01T06:51:07;13.10;;;7.40;;
15363;SDS011;7781;49.690;6.472;2023-03-01T06:53:37;12.27;;;7.00;;
15363;SDS011;7781;49.690;6.472;2023-03-01T06:56:05;13.50;;;7.20;;
15363;SDS011;7781;49.690;6.472;2023-03-01T06:58:34;10.37;;;7.03;;
15363;SDS011;7781;49.690;6.472;2023-03-01T07:01:05;12.27;;;6.40;;
15363;SDS011;7781;49.690;6.472;2023-03-01T07:03:34;11.00;;;6.20;;
15363;SDS011;7781;49.690;6.472;2023-03-01T07:06:03;13.50;;;6.33;;
15363;SDS011;7781;49.690;6.472;2023-03-01T07:08:32;14.80;;;7.10;;
15363;SDS011;7781;49.690;6.472;2023-03-01T07:11:03;13.60;;;7.27;;
15363;SDS011;7781;49.690;6.472;2023-03-01T07:13:32;12.57;;;7.37;;
15363;SDS011;7781;49.690;6.472;2023-03-01T07:16:01;14.50;;;7.57;;
15363;SDS011;7781;49.690;6.472;2023-03-01T07:18:30;15.87;;;7.80;;
15363;SDS011;7781;49.690;6.472;2023-03-01T07:21:03;14.03;;;8.10;;
15363;SDS011;7781;49.690;6.472;2023-03-01T07:23:32;13.33;;;7.40;;
15363;SDS011;7781;49.690;6.472;2023-03-01T07:26:01;14.70;;;6.87;;
15363;SDS011;7781;49.690;6.472;2023-03-01T07:28:31;12.63;;;7.27;;
15363;SDS011;7781;49.690;6.472;2023-03-01T07:31:02;10.67;;;6.80;;
15363;SDS011;7781;49.690;6.472;2023-03-01T07:33:31;12.17;;;7.13;;
15363;SDS011;7781;49.690;6.472;2023-03-01T07:36:00;12.37;;;7.50;;
15363;SDS011;7781;49.690;6.472;2023-03-01T07:38:30;12.60;;;6.57;;
15363;SDS011;7781;49.690;6.472;2023-03-01T07:40:58;14.70;;;8.20;;
15363;SDS011;7781;49.690;6.472;2023-03-01T07:43:29;17.53;;;8.73;;
15363;SDS011;7781;49.690;6.472;2023-03-01T07:45:58;12.43;;;7.80;;
15363;SDS011;7781;49.690;6.472;2023-03-01T07:48:28;15.20;;;8.47;;
15363;SDS011;7781;49.690;6.472;2023-03-01T07:50:58;13.30;;;8.03;;
15363;SDS011;7781;49.690;6.472;2023-03-01T07:53:27;20.90;;;7.37;;
15363;SDS011;7781;49.690;6.472;2023-03-01T07:56:01;17.33;;;7.80;;
15363;SDS011;7781;49.690;6.472;2023-03-01T07:58:33;13.73;;;8.00;;
15363;SDS011;7781;49.690;6.472;2023-03-01T08:01:02;14.20;;;7.67;;
15363;SDS011;7781;49.690;6.472;2023-03-01T08:03:31;12.43;;;8.23;;
15363;SDS011;7781;49.690;6.472;2023-03-01T08:06:00;17.07;;;8.73;;
15363;SDS011;7781;49.690;6.472;2023-03-01T08:08:30;15.07;;;7.90;;
15363;SDS011;7781;49.690;6.472;2023-03-01T08:10:58;15.80;;;8.33;;
15363;SDS011;7781;49.690;6.472;2023-03-01T08:13:28;16.00;;;8.37;;
15363;SDS011;7781;49.690;6.472;2023-03-01T08:16:03;17.30;;;7.77;;
15363;SDS011;7781;49.690;6.472;2023-03-01T08:18:33;16.77;;;7.73;;
15363;SDS011;7781;49.690;6.472;2023-03-01T08:21:03;16.43;;;8.80;;
15363;SDS011;7781;49.690;6.472;2023-03-01T08:23:32;14.80;;;8.60;;
15363;SDS011;7781;49.690;6.472;2023-03-01T08:26:05;18.03;;;8.60;;
15363;SDS011;7781;49.690;6.472;2023-03-01T08:28:35;14.67;;;9.20;;
15363;SDS011;7781;49.690;6.472;2023-03-01T08:31:14;20.63;;;9.50;;
15363;SDS011;7781;49.690;6.472;2023-03-01T08:33:44;14.13;;;8.77;;
15363;SDS011;7781;49.690;6.472;2023-03-01T08:36:17;12.37;;;8.00;;
15363;SDS011;7781;49.690;6.472;2023-03-01T08:38:47;11.53;;;7.80;;
15363;SDS011;7781;49.690;6.472;2023-03-01T08:41:16;15.27;;;8.30;;
15363;SDS011;7781;49.690;6.472;2023-03-01T08:43:45;33.83;;;8.37;;
15363;SDS011;7781;49.690;6.472;2023-03-01T08:46:16;21.77;;;8.50;;
15363;SDS011;7781;49.690;6.472;2023-03-01T08:48:45;17.17;;;8.30;;
15363;SDS011;7781;49.690;6.472;2023-03-01T08:51:13;14.20;;;7.87;;
15363;SDS011;7781;49.690;6.472;2023-03-01T08:53:46;15.70;;;8.27;;
15363;SDS011;7781;49.690;6.472;2023-03-01T08:56:15;12.77;;;7.73;;
15363;SDS011;7781;49.690;6.472;2023-03-01T08:58:45;13.67;;;7.90;;
15363;SDS011;7781;49.690;6.472;2023-03-01T09:01:17;13.73;;;7.73;;
15363;SDS011;7781;49.690;6.472;2023-03-01T09:03:46;13.77;;;7.90;;
15363;SDS011;7781;49.690;6.472;2023-03-01T09:06:17;16.80;;;8.10;;
15363;SDS011;7781;49.690;6.472;2023-03-01T09:08:47;14.70;;;8.80;;
15363;SDS011;7781;49.690;6.472;2023-03-01T09:11:19;18.23;;;7.93;;
15363;SDS011;7781;49.690;6.472;2023-03-01T09:13:50;17.03;;;9.47;;
15363;SDS011;7781;49.690;6.472;2023-03-01T09:16:21;14.93;;;7.53;;
15363;SDS011;7781;49.690;6.472;2023-03-01T09:18:51;14.07;;;8.53;;
15363;SDS011;7781;49.690;6.472;2023-03-01T09:21:21;11.77;;;7.60;;
15363;SDS011;7781;49.690;6.472;2023-03-01T09:24:06;18.00;;;9.20;;
15363;SDS011;7781;49.690;6.472;2023-03-01T09:26:40;11.77;;;7.80;;
15363;SDS011;7781;49.690;6.472;2023-03-01T09:29:10;13.10;;;8.10;;
15363;SDS011;7781;49.690;6.472;2023-03-01T09:31:42;13.20;;;7.80;;
15363;SDS011;7781;49.690;6.472;2023-03-01T09:34:11;20.10;;;8.50;;
15363;SDS011;7781;49.690;6.472;2023-03-01T09:36:41;15.23;;;8.00;;
15363;SDS011;7781;49.690;6.472;2023-03-01T09:39:11;12.10;;;8.17;;
15363;SDS011;7781;49.690;6.472;2023-03-01T09:41:44;14.10;;;8.30;;
15363;SDS011;7781;49.690;6.472;2023-03-01T09:44:24;17.70;;;7.63;;
15363;SDS011;7781;49.690;6.472;2023-03-01T09:47:05;12.60;;;8.80;;
15363;SDS011;7781;49.690;6.472;2023-03-01T09:49:40;13.90;;;7.53;;
15363;SDS011;7781;49.690;6.472;2023-03-01T09:52:19;14.00;;;8.30;;
15363;SDS011;7781;49.690;6.472;2023-03-01T09:54:54;14.53;;;8.53;;
15363;SDS011;7781;49.690;6.472;2023-03-01T09:57:28;19.57;;;8.23;;
15363;SDS011;7781;49.690;6.472;2023-03-01T10:03:01;13.20;;;8.10;;
15363;SDS011;7781;49.690;6.472;2023-03-01T10:05:40;14.10;;;7.93;;
15363;SDS011;7781;49.690;6.472;2023-03-01T10:11:22;15.13;;;7.87;;
15363;SDS011;7781;49.690;6.472;2023-03-01T10:13:55;13.83;;;7.50;;
15363;SDS011;7781;49.690;6.472;2023-03-01T10:16:38;11.33;;;7.80;;
15363;SDS011;7781;49.690;6.472;2023-03-01T10:19:14;12.53;;;6.67;;
15363;SDS011;7781;49.690;6.472;2023-03-01T10:21:50;16.43;;;8.40;;
15363;SDS011;7781;49.690;6.472;2023-03-01T10:24:19;18.70;;;8.63;;
15363;SDS011;7781;49.690;6.472;2023-03-01T10:26:51;14.80;;;8.70;;
15363;SDS011;7781;49.690;6.472;2023-03-01T10:29:29;15.97;;;8.93;;
15363;SDS011;7781;49.690;6.472;2023-03-01T10:32:03;14.27;;;7.70;;
15363;SDS011;7781;49.690;6.472;2023-03-01T10:34:35;14.37;;;8.27;;
15363;SDS011;7781;49.690;6.472;2023-03-01T10:37:09;12.10;;;7.90;;
15363;SDS011;7781;49.690;6.472;2023-03-01T10:42:33;14.77;;;8.20;;
15363;SDS011;7781;49.690;6.472;2023-03-01T10:45:14;16.20;;;9.10;;
15363;SDS011;7781;49.690;6.472;2023-03-01T10:47:45;14.50;;;8.90;;
15363;SDS011;7781;49.690;6.472;2023-03-01T10:50:19;12.43;;;7.93;;
15363;SDS011;7781;49.690;6.472;2023-03-01T10:52:58;14.60;;;7.50;;
15363;SDS011;7781;49.690;6.472;2023-03-01T10:55:34;17.13;;;7.60;;
15363;SDS011;7781;49.690;6.472;2023-03-01T10:58:11;14.17;;;8.40;;
15363;SDS011;7781;49.690;6.472;2023-03-01T11:00:47;14.07;;;7.93;;
15363;SDS011;7781;49.690;6.472;2023-03-01T11:03:21;12.50;;;7.80;;
15363;SDS011;7781;49.690;6.472;2023-03-01T11:06:19;14.03;;;8.63;;
15363;SDS011;7781;49.690;6.472;2023-03-01T11:08:50;14.80;;;8.10;;
15363;SDS011;7781;49.690;6.472;2023-03-01T11:11:25;14.70;;;8.70;;
15363;SDS011;7781;49.690;6.472;2023-03-01T11:13:59;15.90;;;8.27;;
15363;SDS011;7781;49.690;6.472;2023-03-01T11:16:57;16.93;;;8.73;;
15363;SDS011;7781;49.690;6.472;2023-03-01T11:19:29;13.20;;;8.00;;
15363;SDS011;7781;49.690;6.472;2023-03-01T11:22:02;11.47;;;7.87;;
15363;SDS011;7781;49.690;6.472;2023-03-01T11:24:34;16.27;;;9.13;;
15363;SDS011;7781;49.690;6.472;2023-03-01T11:27:15;14.50;;;9.40;;
15363;SDS011;7781;49.690;6.472;2023-03-01T11:29:48;17.27;;;8.20;;
15363;SDS011;7781;49.690;6.472;2023-03-01T11:32:23;18.03;;;9.10;;
15363;SDS011;7781;49.690;6.472;2023-03-01T11:34:56;17.30;;;9.27;;
15363;SDS011;7781;49.690;6.472;2023-03-01T11:37:33;14.57;;;9.37;;
15363;SDS011;7781;49.690;6.472;2023-03-01T11:40:10;18.80;;;9.07;;
15363;SDS011;7781;49.690;6.472;2023-03-01T11:42:46;16.17;;;8.87;;
15363;SDS011;7781;49.690;6.472;2023-03-01T11:45:22;15.70;;;9.20;;
15363;SDS011;7781;49.690;6.472;2023-03-01T11:48:01;16.33;;;9.00;;
15363;SDS011;7781;49.690;6.472;2023-03-01T11:50:39;13.67;;;8.20;;
15363;SDS011;7781;49.690;6.472;2023-03-01T11:53:17;14.50;;;8.40;;
15363;SDS011;7781;49.690;6.472;2023-03-01T11:56:04;16.37;;;9.03;;
15363;SDS011;7781;49.690;6.472;2023-03-01T11:58:56;16.50;;;9.40;;
15363;SDS011;7781;49.690;6.472;2023-03-01T12:01:39;15.90;;;7.90;;
15363;SDS011;7781;49.690;6.472;2023-03-01T12:07:32;13.70;;;8.60;;
15363;SDS011;7781;49.690;6.472;2023-03-01T12:13:07;13.43;;;8.20;;
15363;SDS011;7781;49.690;6.472;2023-03-01T12:15:53;14.93;;;8.90;;
15363;SDS011;7781;49.690;6.472;2023-03-01T12:18:47;12.17;;;7.67;;
15363;SDS011;7781;49.690;6.472;2023-03-01T12:21:30;15.93;;;9.73;;
15363;SDS011;7781;49.690;6.472;2023-03-01T12:27:20;19.87;;;8.97;;
15363;SDS011;7781;49.690;6.472;2023-03-01T12:30:03;13.57;;;8.73;;
15363;SDS011;7781;49.690;6.472;2023-03-01T12:32:52;11.83;;;8.13;;
15363;SDS011;7781;49.690;6.472;2023-03-01T12:38:56;18.30;;;8.77;;
15363;SDS011;7781;49.690;6.472;2023-03-01T12:41:39;15.53;;;8.80;;
15363;SDS011;7781;49.690;6.472;2023-03-01T12:47:26;16.40;;;8.77;;
15363;SDS011;7781;49.690;6.472;2023-03-01T12:50:11;15.30;;;8.13;;
15363;SDS011;7781;49.690;6.472;2023-03-01T12:52:47;14.27;;;8.67;;
15363;SDS011;7781;49.690;6.472;2023-03-01T12:55:24;14.47;;;7.70;;
15363;SDS011;7781;49.690;6.472;2023-03-01T12:58:00;16.27;;;9.20;;
15363;SDS011;7781;49.690;6.472;2023-03-01T13:00:36;15.03;;;7.57;;
15363;SDS011;7781;49.690;6.472;2023-03-01T13:03:12;15.10;;;9.40;;
15363;SDS011;7781;49.690;6.472;2023-03-01T13:05:54;13.07;;;9.27;;
15363;SDS011;7781;49.690;6.472;2023-03-01T13:08:34;15.17;;;9.23;;
15363;SDS011;7781;49.690;6.472;2023-03-01T13:11:18;14.80;;;8.30;;
15363;SDS011;7781;49.690;6.472;2023-03-01T13:13:49;12.17;;;7.80;;
15363;SDS011;7781;49.690;6.472;2023-03-01T13:19:17;13.70;;;8.80;;
15363;SDS011;7781;49.690;6.472;2023-03-01T13:21:48;14.07;;;8.13;;
15363;SDS011;7781;49.690;6.472;2023-03-01T13:24:24;16.87;;;9.67;;
15363;SDS011;7781;49.690;6.472;2023-03-01T13:27:08;14.07;;;8.67;;
15363;SDS011;7781;49.690;6.472;2023-03-01T13:29:46;12.67;;;8.13;;
15363;SDS011;7781;49.690;6.472;2023-03-01T13:32:20;15.97;;;7.90;;
15363;SDS011;7781;49.690;6.472;2023-03-01T13:35:08;13.70;;;8.43;;
15363;SDS011;7781;49.690;6.472;2023-03-01T13:41:13;15.03;;;9.00;;
15363;SDS011;7781;49.690;6.472;2023-03-01T13:43:42;19.50;;;9.50;;
15363;SDS011;7781;49.690;6.472;2023-03-01T13:46:15;14.07;;;8.57;;
15363;SDS011;7781;49.690;6.472;2023-03-01T13:48:47;14.63;;;8.93;;
15363;SDS011;7781;49.690;6.472;2023-03-01T13:51:22;16.17;;;9.20;;
15363;SDS011;7781;49.690;6.472;2023-03-01T13:53:53;15.63;;;8.60;;
15363;SDS011;7781;49.690;6.472;2023-03-01T13:56:24;12.90;;;8.87;;
15363;SDS011;7781;49.690;6.472;2023-03-01T13:58:58;13.10;;;9.00;;
15363;SDS011;7781;49.690;6.472;2023-03-01T14:01:31;10.77;;;8.40;;
15363;SDS011;7781;49.690;6.472;2023-03-01T14:04:02;13.10;;;8.87;;
15363;SDS011;7781;49.690;6.472;2023-03-01T14:06:47;15.50;;;9.80;;
15363;SDS011;7781;49.690;6.472;2023-03-01T14:09:17;13.10;;;8.80;;
15363;SDS011;7781;49.690;6.472;2023-03-01T14:12:03;11.97;;;8.70;;
15363;SDS011;7781;49.690;6.472;2023-03-01T14:14:42;12.53;;;8.10;;
15363;SDS011;7781;49.690;6.472;2023-03-01T14:17:26;15.23;;;9.00;;
15363;SDS011;7781;49.690;6.472;2023-03-01T14:20:18;12.70;;;8.13;;
15363;SDS011;7781;49.690;6.472;2023-03-01T14:22:51;13.13;;;8.77;;
15363;SDS011;7781;49.690;6.472;2023-03-01T14:25:24;13.70;;;8.33;;
15363;SDS011;7781;49.690;6.472;2023-03-01T14:27:58;12.97;;;8.00;;
15363;SDS011;7781;49.690;6.472;2023-03-01T14:30:32;12.67;;;7.83;;
15363;SDS011;7781;49.690;6.472;2023-03-01T14:33:04;18.57;;;7.70;;
15363;SDS011;7781;49.690;6.472;2023-03-01T14:35:51;12.63;;;7.93;;
15363;SDS011;7781;49.690;6.472;2023-03-01T14:38:27;14.03;;;8.50;;
15363;SDS011;7781;49.690;6.472;2023-03-01T14:40:59;11.37;;;7.37;;
15363;SDS011;7781;49.690;6.472;2023-03-01T14:43:32;13.80;;;8.27;;
15363;SDS011;7781;49.690;6.472;2023-03-01T14:46:01;12.70;;;7.73;;
15363;SDS011;7781;49.690;6.472;2023-03-01T14:48:30;12.90;;;8.43;;
15363;SDS011;7781;49.690;6.472;2023-03-01T14:51:00;12.00;;;7.80;;
15363;SDS011;7781;49.690;6.472;2023-03-01T14:53:30;13.20;;;8.10;;
15363;SDS011;7781;49.690;6.472;2023-03-01T14:56:16;20.13;;;8.43;;
15363;SDS011;7781;49.690;6.472;2023-03-01T14:58:46;10.40;;;7.03;;
15363;SDS011;7781;49.690;6.472;2023-03-01T15:01:20;13.10;;;6.97;;
15363;SDS011;7781;49.690;6.472;2023-03-01T15:03:49;15.33;;;8.70;;
15363;SDS011;7781;49.690;6.472;2023-03-01T15:06:20;10.90;;;7.17;;
15363;SDS011;7781;49.690;6.472;2023-03-01T15:08:52;14.23;;;7.83;;
15363;SDS011;7781;49.690;6.472;2023-03-01T15:11:23;11.77;;;7.63;;
15363;SDS011;7781;49.690;6.472;2023-03-01T15:13:56;11.27;;;7.10;;
15363;SDS011;7781;49.690;6.472;2023-03-01T15:16:25;14.97;;;8.20;;
15363;SDS011;7781;49.690;6.472;2023-03-01T15:18:57;11.60;;;7.70;;
15363;SDS011;7781;49.690;6.472;2023-03-01T15:21:30;14.00;;;7.60;;
15363;SDS011;7781;49.690;6.472;2023-03-01T15:24:05;15.13;;;7.60;;
15363;SDS011;7781;49.690;6.472;2023-03-01T15:26:39;12.57;;;8.80;;
15363;SDS011;7781;49.690;6.472;2023-03-01T15:29:14;14.23;;;7.90;;
15363;SDS011;7781;49.690;6.472;2023-03-01T15:31:53;14.03;;;7.30;;
15363;SDS011;7781;49.690;6.472;2023-03-01T15:34:23;14.60;;;7.67;;
15363;SDS011;7781;49.690;6.472;2023-03-01T15:36:55;12.07;;;7.63;;
15363;SDS011;7781;49.690;6.472;2023-03-01T15:42:38;13.57;;;7.30;;
15363;SDS011;7781;49.690;6.472;2023-03-01T15:45:09;11.87;;;7.00;;
15363;SDS011;7781;49.690;6.472;2023-03-01T15:47:40;9.57;;;6.60;;
15363;SDS011;7781;49.690;6.472;2023-03-01T15:50:15;16.33;;;7.30;;
15363;SDS011;7781;49.690;6.472;2023-03-01T15:52:47;10.43;;;6.63;;
15363;SDS011;7781;49.690;6.472;2023-03-01T15:55:21;12.47;;;8.00;;
15363;SDS011;7781;49.690;6.472;2023-03-01T15:57:58;10.20;;;6.40;;
15363;SDS011;7781;49.690;6.472;2023-03-01T16:00:35;12.57;;;7.27;;